sensor_id;sensor_type;location;lat;lon;timestamp;temperature;humidity
10788;DHT22;5446;50.826;4.380;2023-05-08T00:00:26;15.70;99.90
10788;DHT22;5446;50.826;4.380;2023-05-08T00:02:52;15.70;99.90
10788;DHT22;5446;50.826;4.380;2023-05-08T00:05:18;15.60;99.90
10788;DHT22;5446;50.826;4.380;2023-05-08T00:07:44;15.60;99.90
10788;DHT22;5446;50.826;4.380;2023-05-08T00:10:11;15.60;99.90
10788;DHT22;5446;50.826;4.380;2023-05-08T00:12:38;15.50;99.90
10788;DHT22;5446;50.826;4.380;2023-05-08T00:15:04;15.50;99.90
10788;DHT22;5446;50.826;4.380;2023-05-08T00:17:31;15.50;99.90
10788;DHT22;5446;50.826;4.380;2023-05-08T00:19:58;15.40;99.90
10788;DHT22;5446;50.826;4.380;2023-05-08T00:22:24;15.40;99.90
10788;DHT22;5446;50.826;4.380;2023-05-08T00:24:50;15.40;99.90
10788;DHT22;5446;50.826;4.380;2023-05-08T00:27:16;15.40;99.90
10788;DHT22;5446;50.826;4.380;2023-05-08T00:29:41;15.40;99.90
10788;DHT22;5446;50.826;4.380;2023-05-08T00:32:08;15.30;99.90
10788;DHT22;5446;50.826;4.380;2023-05-08T00:34:35;15.30;99.90
10788;DHT22;5446;50.826;4.380;2023-05-08T00:37:03;15.30;99.90
10788;DHT22;5446;50.826;4.380;2023-05-08T00:39:31;15.30;99.90
10788;DHT22;5446;50.826;4.380;2023-05-08T00:41:57;15.30;99.90
10788;DHT22;5446;50.826;4.380;2023-05-08T00:44:24;15.30;99.90
10788;DHT22;5446;50.826;4.380;2023-05-08T00:46:51;15.30;99.90
10788;DHT22;5446;50.826;4.380;2023-05-08T00:49:17;15.30;99.90
10788;DHT22;5446;50.826;4.380;2023-05-08T00:51:49;15.30;99.90
10788;DHT22;5446;50.826;4.380;2023-05-08T00:54:15;15.30;99.90
10788;DHT22;5446;50.826;4.380;2023-05-08T00:56:42;15.30;99.90
10788;DHT22;5446;50.826;4.380;2023-05-08T00:59:11;15.20;99.90
10788;DHT22;5446;50.826;4.380;2023-05-08T01:01:37;15.20;99.90
10788;DHT22;5446;50.826;4.380;2023-05-08T01:04:04;15.20;99.90
10788;DHT22;5446;50.826;4.380;2023-05-08T01:06:31;15.20;99.90
10788;DHT22;5446;50.826;4.380;2023-05-08T01:08:59;15.10;99.90
10788;DHT22;5446;50.826;4.380;2023-05-08T01:11:51;15.10;99.90
10788;DHT22;5446;50.826;4.380;2023-05-08T01:14:40;15.10;99.90
10788;DHT22;5446;50.826;4.380;2023-05-08T01:17:14;15.10;99.90
10788;DHT22;5446;50.826;4.380;2023-05-08T01:22:52;14.90;99.90
10788;DHT22;5446;50.826;4.380;2023-05-08T01:25:50;14.90;99.90
10788;DHT22;5446;50.826;4.380;2023-05-08T01:28:44;14.90;99.90
10788;DHT22;5446;50.826;4.380;2023-05-08T01:34:07;14.90;99.90
10788;DHT22;5446;50.826;4.380;2023-05-08T01:36:58;14.80;99.90
10788;DHT22;5446;50.826;4.380;2023-05-08T01:45:31;14.80;99.90
10788;DHT22;5446;50.826;4.380;2023-05-08T01:48:10;14.80;99.90
10788;DHT22;5446;50.826;4.380;2023-05-08T01:50:43;14.70;99.90
10788;DHT22;5446;50.826;4.380;2023-05-08T01:53:23;14.70;99.90
10788;DHT22;5446;50.826;4.380;2023-05-08T01:55:55;14.70;99.90
10788;DHT22;5446;50.826;4.380;2023-05-08T01:58:23;14.70;99.90
10788;DHT22;5446;50.826;4.380;2023-05-08T02:00:49;14.70;99.90
10788;DHT22;5446;50.826;4.380;2023-05-08T02:03:16;14.70;99.90
10788;DHT22;5446;50.826;4.380;2023-05-08T02:05:43;14.70;99.90
10788;DHT22;5446;50.826;4.380;2023-05-08T02:08:11;14.70;99.90
10788;DHT22;5446;50.826;4.380;2023-05-08T02:10:39;14.80;99.90
10788;DHT22;5446;50.826;4.380;2023-05-08T02:13:07;14.80;99.90
10788;DHT22;5446;50.826;4.380;2023-05-08T02:15:35;14.80;99.90
10788;DHT22;5446;50.826;4.380;2023-05-08T02:18:03;14.80;99.90
10788;DHT22;5446;50.826;4.380;2023-05-08T02:20:30;14.90;99.90
10788;DHT22;5446;50.826;4.380;2023-05-08T02:22:56;14.90;99.90
10788;DHT22;5446;50.826;4.380;2023-05-08T02:25:23;14.90;99.90
10788;DHT22;5446;50.826;4.380;2023-05-08T02:27:51;14.90;99.90
10788;DHT22;5446;50.826;4.380;2023-05-08T02:30:18;14.90;99.90
10788;DHT22;5446;50.826;4.380;2023-05-08T02:32:46;14.90;99.90
10788;DHT22;5446;50.826;4.380;2023-05-08T02:35:14;14.90;99.90
10788;DHT22;5446;50.826;4.380;2023-05-08T02:37:50;14.90;99.90
10788;DHT22;5446;50.826;4.380;2023-05-08T02:40:17;14.90;99.90
10788;DHT22;5446;50.826;4.380;2023-05-08T02:42:45;14.90;99.90
10788;DHT22;5446;50.826;4.380;2023-05-08T02:45:11;14.90;99.90
10788;DHT22;5446;50.826;4.380;2023-05-08T02:47:59;14.90;99.90
10788;DHT22;5446;50.826;4.380;2023-05-08T02:50:34;14.80;99.90
10788;DHT22;5446;50.826;4.380;2023-05-08T02:53:03;14.70;99.90
10788;DHT22;5446;50.826;4.380;2023-05-08T02:55:43;14.70;99.90
10788;DHT22;5446;50.826;4.380;2023-05-08T02:58:22;14.70;99.90
10788;DHT22;5446;50.826;4.380;2023-05-08T03:01:04;14.60;99.90
10788;DHT22;5446;50.826;4.380;2023-05-08T03:03:47;14.60;99.90
10788;DHT22;5446;50.826;4.380;2023-05-08T03:06:18;14.50;99.90
10788;DHT22;5446;50.826;4.380;2023-05-08T03:08:46;14.50;99.90
10788;DHT22;5446;50.826;4.380;2023-05-08T03:11:15;14.50;99.90
10788;DHT22;5446;50.826;4.380;2023-05-08T03:13:42;14.50;99.90
10788;DHT22;5446;50.826;4.380;2023-05-08T03:16:31;14.40;99.90
10788;DHT22;5446;50.826;4.380;2023-05-08T03:19:02;14.50;99.90
10788;DHT22;5446;50.826;4.380;2023-05-08T03:21:30;14.40;99.90
10788;DHT22;5446;50.826;4.380;2023-05-08T03:24:00;14.30;99.90
10788;DHT22;5446;50.826;4.380;2023-05-08T03:26:27;14.30;99.90
10788;DHT22;5446;50.826;4.380;2023-05-08T03:28:53;14.30;99.90
10788;DHT22;5446;50.826;4.380;2023-05-08T03:31:21;14.30;99.90
10788;DHT22;5446;50.826;4.380;2023-05-08T03:33:51;14.20;99.90
10788;DHT22;5446;50.826;4.380;2023-05-08T03:36:18;14.20;99.90
10788;DHT22;5446;50.826;4.380;2023-05-08T03:38:44;14.20;99.90
10788;DHT22;5446;50.826;4.380;2023-05-08T03:41:11;14.20;99.90
10788;DHT22;5446;50.826;4.380;2023-05-08T03:43:37;14.10;99.90
10788;DHT22;5446;50.826;4.380;2023-05-08T03:46:07;14.10;99.90
10788;DHT22;5446;50.826;4.380;2023-05-08T03:48:34;14.20;99.90
10788;DHT22;5446;50.826;4.380;2023-05-08T03:51:04;14.10;99.90
10788;DHT22;5446;50.826;4.380;2023-05-08T03:53:30;14.10;99.90
10788;DHT22;5446;50.826;4.380;2023-05-08T03:55:57;14.10;99.90
10788;DHT22;5446;50.826;4.380;2023-05-08T04:04:06;14.10;99.90
10788;DHT22;5446;50.826;4.380;2023-05-08T04:09:27;14.00;99.90
10788;DHT22;5446;50.826;4.380;2023-05-08T04:14:55;14.10;99.90
10788;DHT22;5446;50.826;4.380;2023-05-08T04:17:44;14.00;99.90
10788;DHT22;5446;50.826;4.380;2023-05-08T04:20:15;14.10;99.90
10788;DHT22;5446;50.826;4.380;2023-05-08T04:22:42;14.10;99.90
10788;DHT22;5446;50.826;4.380;2023-05-08T04:25:11;14.10;99.90
10788;DHT22;5446;50.826;4.380;2023-05-08T04:27:37;14.00;99.90
10788;DHT22;5446;50.826;4.380;2023-05-08T04:30:04;14.10;99.90
10788;DHT22;5446;50.826;4.380;2023-05-08T04:32:31;14.10;99.90
10788;DHT22;5446;50.826;4.380;2023-05-08T04:34:59;14.10;99.90
10788;DHT22;5446;50.826;4.380;2023-05-08T04:37:26;14.10;99.90
10788;DHT22;5446;50.826;4.380;2023-05-08T04:39:52;14.10;99.90
10788;DHT22;5446;50.826;4.380;2023-05-08T04:42:19;14.00;99.90
10788;DHT22;5446;50.826;4.380;2023-05-08T04:44:44;14.10;99.90
10788;DHT22;5446;50.826;4.380;2023-05-08T04:47:15;14.00;99.90
10788;DHT22;5446;50.826;4.380;2023-05-08T04:49:40;14.10;99.90
10788;DHT22;5446;50.826;4.380;2023-05-08T04:52:06;14.10;99.90
10788;DHT22;5446;50.826;4.380;2023-05-08T04:54:32;14.20;99.90
10788;DHT22;5446;50.826;4.380;2023-05-08T04:56:58;14.10;99.90
10788;DHT22;5446;50.826;4.380;2023-05-08T04:59:24;14.10;99.90
10788;DHT22;5446;50.826;4.380;2023-05-08T05:01:50;14.20;99.90
10788;DHT22;5446;50.826;4.380;2023-05-08T05:04:16;14.20;99.90
10788;DHT22;5446;50.826;4.380;2023-05-08T05:06:42;14.20;99.90
10788;DHT22;5446;50.826;4.380;2023-05-08T05:09:07;14.20;99.90
10788;DHT22;5446;50.826;4.380;2023-05-08T05:11:33;14.20;99.90
10788;DHT22;5446;50.826;4.380;2023-05-08T05:13:59;14.20;99.90
10788;DHT22;5446;50.826;4.380;2023-05-08T05:16:25;14.30;99.90
10788;DHT22;5446;50.826;4.380;2023-05-08T05:18:52;14.30;99.90
10788;DHT22;5446;50.826;4.380;2023-05-08T05:21:18;14.30;99.90
10788;DHT22;5446;50.826;4.380;2023-05-08T05:23:44;14.30;99.90
10788;DHT22;5446;50.826;4.380;2023-05-08T05:26:10;14.30;99.90
10788;DHT22;5446;50.826;4.380;2023-05-08T05:28:35;14.30;99.90
10788;DHT22;5446;50.826;4.380;2023-05-08T05:31:01;14.30;99.90
10788;DHT22;5446;50.826;4.380;2023-05-08T05:33:27;14.30;99.90
10788;DHT22;5446;50.826;4.380;2023-05-08T05:35:53;14.30;99.90
10788;DHT22;5446;50.826;4.380;2023-05-08T05:38:19;14.30;99.90
10788;DHT22;5446;50.826;4.380;2023-05-08T05:40:45;14.40;99.90
10788;DHT22;5446;50.826;4.380;2023-05-08T05:43:11;14.40;99.90
10788;DHT22;5446;50.826;4.380;2023-05-08T05:45:37;14.30;99.90
10788;DHT22;5446;50.826;4.380;2023-05-08T05:48:05;14.40;99.90
10788;DHT22;5446;50.826;4.380;2023-05-08T05:50:30;14.30;99.90
10788;DHT22;5446;50.826;4.380;2023-05-08T05:52:57;14.40;99.90
10788;DHT22;5446;50.826;4.380;2023-05-08T05:55:22;14.40;99.90
10788;DHT22;5446;50.826;4.380;2023-05-08T05:57:48;14.40;99.90
10788;DHT22;5446;50.826;4.380;2023-05-08T06:00:15;14.40;99.90
10788;DHT22;5446;50.826;4.380;2023-05-08T06:02:41;14.30;99.90
10788;DHT22;5446;50.826;4.380;2023-05-08T06:05:07;14.40;99.90
10788;DHT22;5446;50.826;4.380;2023-05-08T06:07:33;14.30;99.90
10788;DHT22;5446;50.826;4.380;2023-05-08T06:10:00;14.30;99.90
10788;DHT22;5446;50.826;4.380;2023-05-08T06:12:26;14.30;99.90
10788;DHT22;5446;50.826;4.380;2023-05-08T06:14:53;14.30;99.90
10788;DHT22;5446;50.826;4.380;2023-05-08T06:17:19;14.30;99.90
10788;DHT22;5446;50.826;4.380;2023-05-08T06:19:45;14.30;99.90
10788;DHT22;5446;50.826;4.380;2023-05-08T06:22:21;14.30;99.90
10788;DHT22;5446;50.826;4.380;2023-05-08T06:24:48;14.40;99.90
10788;DHT22;5446;50.826;4.380;2023-05-08T06:27:13;14.30;99.90
10788;DHT22;5446;50.826;4.380;2023-05-08T06:29:39;14.30;99.90
10788;DHT22;5446;50.826;4.380;2023-05-08T06:32:05;14.30;99.90
10788;DHT22;5446;50.826;4.380;2023-05-08T06:34:32;14.30;99.90
10788;DHT22;5446;50.826;4.380;2023-05-08T06:36:58;14.30;99.90
10788;DHT22;5446;50.826;4.380;2023-05-08T06:39:24;14.30;99.90
10788;DHT22;5446;50.826;4.380;2023-05-08T06:41:50;14.30;99.90
10788;DHT22;5446;50.826;4.380;2023-05-08T06:44:16;14.40;99.90
10788;DHT22;5446;50.826;4.380;2023-05-08T06:46:41;14.40;99.90
10788;DHT22;5446;50.826;4.380;2023-05-08T06:49:07;14.50;99.90
10788;DHT22;5446;50.826;4.380;2023-05-08T06:51:33;14.40;99.90
10788;DHT22;5446;50.826;4.380;2023-05-08T06:54:00;14.40;99.90
10788;DHT22;5446;50.826;4.380;2023-05-08T06:56:26;14.30;99.90
10788;DHT22;5446;50.826;4.380;2023-05-08T06:58:52;14.50;99.90
10788;DHT22;5446;50.826;4.380;2023-05-08T07:01:18;14.50;99.90
10788;DHT22;5446;50.826;4.380;2023-05-08T07:03:43;14.50;99.90
10788;DHT22;5446;50.826;4.380;2023-05-08T07:06:09;14.50;99.90
10788;DHT22;5446;50.826;4.380;2023-05-08T07:08:35;14.50;99.90
10788;DHT22;5446;50.826;4.380;2023-05-08T07:11:02;14.50;99.90
10788;DHT22;5446;50.826;4.380;2023-05-08T07:13:28;14.50;99.90
10788;DHT22;5446;50.826;4.380;2023-05-08T07:15:54;14.60;99.90
10788;DHT22;5446;50.826;4.380;2023-05-08T07:18:20;14.70;99.90
10788;DHT22;5446;50.826;4.380;2023-05-08T07:20:46;14.70;99.90
10788;DHT22;5446;50.826;4.380;2023-05-08T07:23:12;14.80;99.90
10788;DHT22;5446;50.826;4.380;2023-05-08T07:25:38;14.70;99.90
10788;DHT22;5446;50.826;4.380;2023-05-08T07:28:04;14.80;99.90
10788;DHT22;5446;50.826;4.380;2023-05-08T07:30:30;14.90;99.90
10788;DHT22;5446;50.826;4.380;2023-05-08T07:32:56;14.90;99.90
10788;DHT22;5446;50.826;4.380;2023-05-08T07:35:21;15.00;99.90
10788;DHT22;5446;50.826;4.380;2023-05-08T07:37:47;15.00;99.90
10788;DHT22;5446;50.826;4.380;2023-05-08T07:40:13;15.10;99.90
10788;DHT22;5446;50.826;4.380;2023-05-08T07:42:40;15.20;99.90
10788;DHT22;5446;50.826;4.380;2023-05-08T07:45:07;15.30;99.90
10788;DHT22;5446;50.826;4.380;2023-05-08T07:47:33;15.30;99.90
10788;DHT22;5446;50.826;4.380;2023-05-08T07:50:00;15.30;99.90
10788;DHT22;5446;50.826;4.380;2023-05-08T07:52:25;15.30;99.90
10788;DHT22;5446;50.826;4.380;2023-05-08T07:54:52;15.40;99.90
10788;DHT22;5446;50.826;4.380;2023-05-08T07:57:17;15.40;99.90
10788;DHT22;5446;50.826;4.380;2023-05-08T07:59:43;15.50;99.90
10788;DHT22;5446;50.826;4.380;2023-05-08T08:02:09;15.50;99.90
10788;DHT22;5446;50.826;4.380;2023-05-08T08:04:35;15.50;99.90
10788;DHT22;5446;50.826;4.380;2023-05-08T08:07:01;15.60;99.90
10788;DHT22;5446;50.826;4.380;2023-05-08T08:09:26;15.50;99.90
10788;DHT22;5446;50.826;4.380;2023-05-08T08:11:52;15.50;99.90
10788;DHT22;5446;50.826;4.380;2023-05-08T08:14:18;15.60;99.90
10788;DHT22;5446;50.826;4.380;2023-05-08T08:16:44;15.60;99.90
10788;DHT22;5446;50.826;4.380;2023-05-08T08:19:09;15.80;99.90
10788;DHT22;5446;50.826;4.380;2023-05-08T08:21:40;16.00;99.90
10788;DHT22;5446;50.826;4.380;2023-05-08T08:24:06;16.20;99.90
10788;DHT22;5446;50.826;4.380;2023-05-08T08:26:32;16.10;99.90
10788;DHT22;5446;50.826;4.380;2023-05-08T08:28:57;16.10;99.90
10788;DHT22;5446;50.826;4.380;2023-05-08T08:31:23;16.10;99.90
10788;DHT22;5446;50.826;4.380;2023-05-08T08:33:49;16.00;99.90
10788;DHT22;5446;50.826;4.380;2023-05-08T08:36:15;16.10;99.90
10788;DHT22;5446;50.826;4.380;2023-05-08T08:38:40;16.10;99.90
10788;DHT22;5446;50.826;4.380;2023-05-08T08:41:07;16.10;99.90
10788;DHT22;5446;50.826;4.380;2023-05-08T08:43:33;16.10;99.90
10788;DHT22;5446;50.826;4.380;2023-05-08T08:46:02;16.00;99.90
10788;DHT22;5446;50.826;4.380;2023-05-08T08:48:37;16.00;99.90
10788;DHT22;5446;50.826;4.380;2023-05-08T08:51:10;15.90;99.90
10788;DHT22;5446;50.826;4.380;2023-05-08T08:53:42;15.90;99.90
10788;DHT22;5446;50.826;4.380;2023-05-08T08:56:10;15.90;99.90
10788;DHT22;5446;50.826;4.380;2023-05-08T08:58:43;15.80;99.90
10788;DHT22;5446;50.826;4.380;2023-05-08T09:01:21;15.90;99.90
10788;DHT22;5446;50.826;4.380;2023-05-08T09:03:47;16.00;99.90
10788;DHT22;5446;50.826;4.380;2023-05-08T09:06:13;16.10;99.90
10788;DHT22;5446;50.826;4.380;2023-05-08T09:08:39;16.20;99.90
10788;DHT22;5446;50.826;4.380;2023-05-08T09:11:05;16.20;99.90
10788;DHT22;5446;50.826;4.380;2023-05-08T09:13:31;16.40;99.90
10788;DHT22;5446;50.826;4.380;2023-05-08T09:15:58;16.30;99.90
10788;DHT22;5446;50.826;4.380;2023-05-08T09:18:23;16.40;99.90
10788;DHT22;5446;50.826;4.380;2023-05-08T09:20:50;16.50;99.90
10788;DHT22;5446;50.826;4.380;2023-05-08T09:23:16;16.60;99.90
10788;DHT22;5446;50.826;4.380;2023-05-08T09:25:47;16.70;99.90
10788;DHT22;5446;50.826;4.380;2023-05-08T09:28:23;16.90;99.90
10788;DHT22;5446;50.826;4.380;2023-05-08T09:30:57;17.00;99.90
10788;DHT22;5446;50.826;4.380;2023-05-08T09:33:26;16.90;99.90
10788;DHT22;5446;50.826;4.380;2023-05-08T09:35:53;16.90;99.90
10788;DHT22;5446;50.826;4.380;2023-05-08T09:38:35;17.00;99.90
10788;DHT22;5446;50.826;4.380;2023-05-08T09:41:12;16.90;99.90
10788;DHT22;5446;50.826;4.380;2023-05-08T09:43:40;16.90;99.90
10788;DHT22;5446;50.826;4.380;2023-05-08T09:48:48;17.10;99.90
10788;DHT22;5446;50.826;4.380;2023-05-08T09:51:13;17.30;99.90
10788;DHT22;5446;50.826;4.380;2023-05-08T09:53:39;17.40;99.90
10788;DHT22;5446;50.826;4.380;2023-05-08T09:56:05;17.60;99.90
10788;DHT22;5446;50.826;4.380;2023-05-08T09:58:39;17.70;99.90
10788;DHT22;5446;50.826;4.380;2023-05-08T10:01:06;17.70;99.90
10788;DHT22;5446;50.826;4.380;2023-05-08T10:03:48;17.60;99.90
10788;DHT22;5446;50.826;4.380;2023-05-08T10:06:15;17.80;99.90
10788;DHT22;5446;50.826;4.380;2023-05-08T10:08:41;17.90;99.90
10788;DHT22;5446;50.826;4.380;2023-05-08T10:11:19;17.90;99.90
10788;DHT22;5446;50.826;4.380;2023-05-08T10:13:46;18.10;99.90
10788;DHT22;5446;50.826;4.380;2023-05-08T10:16:17;18.30;99.90
10788;DHT22;5446;50.826;4.380;2023-05-08T10:18:47;18.50;99.90
10788;DHT22;5446;50.826;4.380;2023-05-08T10:21:14;18.30;99.90
10788;DHT22;5446;50.826;4.380;2023-05-08T10:23:46;18.20;99.90
10788;DHT22;5446;50.826;4.380;2023-05-08T10:26:17;18.10;99.90
10788;DHT22;5446;50.826;4.380;2023-05-08T10:28:49;18.10;99.90
10788;DHT22;5446;50.826;4.380;2023-05-08T10:31:21;18.10;99.90
10788;DHT22;5446;50.826;4.380;2023-05-08T10:33:50;18.20;99.90
10788;DHT22;5446;50.826;4.380;2023-05-08T10:36:17;18.40;99.90
10788;DHT22;5446;50.826;4.380;2023-05-08T10:38:43;18.60;99.90
10788;DHT22;5446;50.826;4.380;2023-05-08T10:41:12;18.60;99.90
10788;DHT22;5446;50.826;4.380;2023-05-08T10:43:41;18.70;99.90
10788;DHT22;5446;50.826;4.380;2023-05-08T10:52:08;18.70;99.90
10788;DHT22;5446;50.826;4.380;2023-05-08T10:57:29;19.20;99.90
10788;DHT22;5446;50.826;4.380;2023-05-08T10:59:56;19.10;99.90
10788;DHT22;5446;50.826;4.380;2023-05-08T11:02:29;19.00;99.90
10788;DHT22;5446;50.826;4.380;2023-05-08T11:05:16;19.20;99.90
10788;DHT22;5446;50.826;4.380;2023-05-08T11:07:56;19.60;99.90
10788;DHT22;5446;50.826;4.380;2023-05-08T11:10:31;19.70;99.90
10788;DHT22;5446;50.826;4.380;2023-05-08T11:12:57;20.00;99.90
10788;DHT22;5446;50.826;4.380;2023-05-08T11:15:37;20.00;99.90
10788;DHT22;5446;50.826;4.380;2023-05-08T11:18:15;19.90;99.90
10788;DHT22;5446;50.826;4.380;2023-05-08T11:20:57;19.70;99.90
10788;DHT22;5446;50.826;4.380;2023-05-08T11:23:23;19.80;99.90
10788;DHT22;5446;50.826;4.380;2023-05-08T11:28:24;19.90;99.90
10788;DHT22;5446;50.826;4.380;2023-05-08T11:30:53;19.70;99.90
10788;DHT22;5446;50.826;4.380;2023-05-08T11:33:25;19.40;99.90
10788;DHT22;5446;50.826;4.380;2023-05-08T11:35:58;19.40;99.90
10788;DHT22;5446;50.826;4.380;2023-05-08T11:41:04;19.50;99.90
10788;DHT22;5446;50.826;4.380;2023-05-08T11:46:03;19.50;99.90
10788;DHT22;5446;50.826;4.380;2023-05-08T11:48:29;19.40;99.90
10788;DHT22;5446;50.826;4.380;2023-05-08T11:50:55;19.40;99.90
10788;DHT22;5446;50.826;4.380;2023-05-08T11:53:21;19.50;99.90
10788;DHT22;5446;50.826;4.380;2023-05-08T11:55:48;19.70;99.90
10788;DHT22;5446;50.826;4.380;2023-05-08T11:58:15;19.90;99.90
10788;DHT22;5446;50.826;4.380;2023-05-08T12:00:42;19.50;99.90
10788;DHT22;5446;50.826;4.380;2023-05-08T12:03:18;19.70;99.90
10788;DHT22;5446;50.826;4.380;2023-05-08T12:05:45;19.90;99.90
10788;DHT22;5446;50.826;4.380;2023-05-08T12:08:13;20.10;99.90
10788;DHT22;5446;50.826;4.380;2023-05-08T12:13:16;20.00;99.90
10788;DHT22;5446;50.826;4.380;2023-05-08T12:15:44;20.10;99.90
10788;DHT22;5446;50.826;4.380;2023-05-08T12:18:09;20.20;99.90
10788;DHT22;5446;50.826;4.380;2023-05-08T12:20:35;20.40;99.90
10788;DHT22;5446;50.826;4.380;2023-05-08T12:23:02;20.40;99.90
10788;DHT22;5446;50.826;4.380;2023-05-08T12:25:28;20.20;99.90
10788;DHT22;5446;50.826;4.380;2023-05-08T12:27:54;20.10;99.90
10788;DHT22;5446;50.826;4.380;2023-05-08T12:30:20;20.00;99.90
10788;DHT22;5446;50.826;4.380;2023-05-08T12:32:46;20.10;99.90
10788;DHT22;5446;50.826;4.380;2023-05-08T12:35:12;20.40;99.90
10788;DHT22;5446;50.826;4.380;2023-05-08T12:37:38;20.60;99.90
10788;DHT22;5446;50.826;4.380;2023-05-08T12:40:05;20.70;99.90
10788;DHT22;5446;50.826;4.380;2023-05-08T12:42:50;20.60;99.90
10788;DHT22;5446;50.826;4.380;2023-05-08T12:45:20;20.40;99.90
10788;DHT22;5446;50.826;4.380;2023-05-08T12:47:51;20.70;99.90
10788;DHT22;5446;50.826;4.380;2023-05-08T12:50:19;20.60;99.90
10788;DHT22;5446;50.826;4.380;2023-05-08T12:52:49;20.80;99.90
10788;DHT22;5446;50.826;4.380;2023-05-08T12:55:26;20.80;99.90
10788;DHT22;5446;50.826;4.380;2023-05-08T12:58:08;20.70;99.90
10788;DHT22;5446;50.826;4.380;2023-05-08T13:00:46;20.80;99.90
10788;DHT22;5446;50.826;4.380;2023-05-08T13:03:22;20.90;99.90
10788;DHT22;5446;50.826;4.380;2023-05-08T13:05:49;21.00;99.90
10788;DHT22;5446;50.826;4.380;2023-05-08T13:08:14;20.80;99.90
10788;DHT22;5446;50.826;4.380;2023-05-08T13:10:50;20.20;99.90
10788;DHT22;5446;50.826;4.380;2023-05-08T13:13:24;20.30;99.90
10788;DHT22;5446;50.826;4.380;2023-05-08T13:15:51;20.40;99.90
10788;DHT22;5446;50.826;4.380;2023-05-08T13:18:18;20.50;99.90
10788;DHT22;5446;50.826;4.380;2023-05-08T13:20:44;20.40;99.90
10788;DHT22;5446;50.826;4.380;2023-05-08T13:23:11;20.30;99.90
10788;DHT22;5446;50.826;4.380;2023-05-08T13:25:38;20.40;99.90
10788;DHT22;5446;50.826;4.380;2023-05-08T13:28:05;20.00;99.90
10788;DHT22;5446;50.826;4.380;2023-05-08T13:30:32;20.30;99.90
10788;DHT22;5446;50.826;4.380;2023-05-08T13:32:58;20.30;99.90
10788;DHT22;5446;50.826;4.380;2023-05-08T13:35:24;20.10;99.90
10788;DHT22;5446;50.826;4.380;2023-05-08T13:37:50;20.00;99.90
10788;DHT22;5446;50.826;4.380;2023-05-08T13:40:17;20.00;99.90
10788;DHT22;5446;50.826;4.380;2023-05-08T13:42:43;19.80;99.90
10788;DHT22;5446;50.826;4.380;2023-05-08T13:45:09;19.50;99.90
10788;DHT22;5446;50.826;4.380;2023-05-08T13:47:35;19.30;99.90
10788;DHT22;5446;50.826;4.380;2023-05-08T13:50:01;19.20;99.90
10788;DHT22;5446;50.826;4.380;2023-05-08T13:52:27;19.10;99.90
10788;DHT22;5446;50.826;4.380;2023-05-08T13:54:56;19.20;99.90
10788;DHT22;5446;50.826;4.380;2023-05-08T13:57:23;19.10;99.90
10788;DHT22;5446;50.826;4.380;2023-05-08T13:59:49;19.30;99.90
10788;DHT22;5446;50.826;4.380;2023-05-08T14:02:15;19.40;99.90
10788;DHT22;5446;50.826;4.380;2023-05-08T14:04:40;19.20;99.90
10788;DHT22;5446;50.826;4.380;2023-05-08T14:07:06;19.20;99.90
10788;DHT22;5446;50.826;4.380;2023-05-08T14:09:32;19.20;99.90
10788;DHT22;5446;50.826;4.380;2023-05-08T14:11:58;19.30;99.90
10788;DHT22;5446;50.826;4.380;2023-05-08T14:14:24;19.50;99.90
10788;DHT22;5446;50.826;4.380;2023-05-08T14:16:50;19.70;99.90
10788;DHT22;5446;50.826;4.380;2023-05-08T14:19:16;19.80;99.90
10788;DHT22;5446;50.826;4.380;2023-05-08T14:21:45;19.90;99.90
10788;DHT22;5446;50.826;4.380;2023-05-08T14:24:11;19.90;99.90
10788;DHT22;5446;50.826;4.380;2023-05-08T14:26:37;20.10;99.90
10788;DHT22;5446;50.826;4.380;2023-05-08T14:29:04;20.10;99.90
10788;DHT22;5446;50.826;4.380;2023-05-08T14:31:30;20.20;99.90
10788;DHT22;5446;50.826;4.380;2023-05-08T14:33:55;20.30;99.90
10788;DHT22;5446;50.826;4.380;2023-05-08T14:36:21;20.30;99.90
10788;DHT22;5446;50.826;4.380;2023-05-08T14:38:47;20.30;99.90
10788;DHT22;5446;50.826;4.380;2023-05-08T14:41:13;20.10;99.90
10788;DHT22;5446;50.826;4.380;2023-05-08T14:43:39;20.00;99.90
10788;DHT22;5446;50.826;4.380;2023-05-08T14:46:04;20.10;99.90
10788;DHT22;5446;50.826;4.380;2023-05-08T14:48:30;20.20;99.90
10788;DHT22;5446;50.826;4.380;2023-05-08T14:50:56;20.00;99.90
10788;DHT22;5446;50.826;4.380;2023-05-08T14:53:22;19.70;99.90
10788;DHT22;5446;50.826;4.380;2023-05-08T14:55:48;19.60;99.90
10788;DHT22;5446;50.826;4.380;2023-05-08T14:58:14;19.60;99.90
10788;DHT22;5446;50.826;4.380;2023-05-08T15:00:39;19.70;99.90
10788;DHT22;5446;50.826;4.380;2023-05-08T15:03:05;19.50;99.90
10788;DHT22;5446;50.826;4.380;2023-05-08T15:05:31;19.60;99.90
10788;DHT22;5446;50.826;4.380;2023-05-08T15:07:57;19.60;99.90
10788;DHT22;5446;50.826;4.380;2023-05-08T15:10:24;19.70;99.90
10788;DHT22;5446;50.826;4.380;2023-05-08T15:12:50;19.60;99.90
10788;DHT22;5446;50.826;4.380;2023-05-08T15:15:15;19.50;99.90
10788;DHT22;5446;50.826;4.380;2023-05-08T15:17:41;19.60;99.90
10788;DHT22;5446;50.826;4.380;2023-05-08T15:20:07;19.30;99.90
10788;DHT22;5446;50.826;4.380;2023-05-08T15:22:33;19.30;99.90
10788;DHT22;5446;50.826;4.380;2023-05-08T15:24:59;19.20;99.90
10788;DHT22;5446;50.826;4.380;2023-05-08T15:27:30;19.20;99.90
10788;DHT22;5446;50.826;4.380;2023-05-08T15:29:56;19.20;99.90
10788;DHT22;5446;50.826;4.380;2023-05-08T15:32:23;19.10;99.90
10788;DHT22;5446;50.826;4.380;2023-05-08T15:34:48;18.90;99.90
10788;DHT22;5446;50.826;4.380;2023-05-08T15:37:14;18.80;99.90
10788;DHT22;5446;50.826;4.380;2023-05-08T15:39:40;18.80;99.90
10788;DHT22;5446;50.826;4.380;2023-05-08T15:42:07;18.60;99.90
10788;DHT22;5446;50.826;4.380;2023-05-08T15:44:33;18.70;99.90
10788;DHT22;5446;50.826;4.380;2023-05-08T15:46:59;18.30;99.90
10788;DHT22;5446;50.826;4.380;2023-05-08T15:49:24;18.30;99.90
10788;DHT22;5446;50.826;4.380;2023-05-08T15:51:54;18.30;99.90
10788;DHT22;5446;50.826;4.380;2023-05-08T15:54:21;18.00;99.90
10788;DHT22;5446;50.826;4.380;2023-05-08T15:56:47;18.00;99.90
10788;DHT22;5446;50.826;4.380;2023-05-08T15:59:12;18.00;99.90
10788;DHT22;5446;50.826;4.380;2023-05-08T16:01:38;18.10;99.90
10788;DHT22;5446;50.826;4.380;2023-05-08T16:04:09;18.30;99.90
10788;DHT22;5446;50.826;4.380;2023-05-08T16:06:35;18.30;99.90
10788;DHT22;5446;50.826;4.380;2023-05-08T16:09:01;18.30;99.90
10788;DHT22;5446;50.826;4.380;2023-05-08T16:11:31;18.20;99.90
10788;DHT22;5446;50.826;4.380;2023-05-08T16:13:57;18.30;99.90
10788;DHT22;5446;50.826;4.380;2023-05-08T16:16:24;18.30;99.90
10788;DHT22;5446;50.826;4.380;2023-05-08T16:18:50;18.10;99.90
10788;DHT22;5446;50.826;4.380;2023-05-08T16:21:15;18.00;99.90
10788;DHT22;5446;50.826;4.380;2023-05-08T16:23:41;18.00;99.90
10788;DHT22;5446;50.826;4.380;2023-05-08T16:26:07;17.80;99.90
10788;DHT22;5446;50.826;4.380;2023-05-08T16:28:33;17.60;99.90
10788;DHT22;5446;50.826;4.380;2023-05-08T16:30:58;17.50;99.90
10788;DHT22;5446;50.826;4.380;2023-05-08T16:33:24;17.60;99.90
10788;DHT22;5446;50.826;4.380;2023-05-08T16:35:50;17.60;99.90